MCY weather

Sunshine Coast Airport
Maroochydore, Queensland, Australia

Public forecast

Using degrees Celsius for public forecast. Weather courtesy of forecast.io.

METAR (pilot weather report)

Closest report is Brisbane International Airport, 46.9 nm (86.9 km) S. Retrieved 2018/05/28 03:00 UTC (4 minutes ago):

YBBN 280300Z 12010KT 9999 -SHRA SCT020 BKN044 BKN250 21/16 Q1022 NOSIG

TAF (pilot weather forecast)

Forecast is more than 12 hours old.

Closest forecast is Brisbane International Airport, 46.9 nm (86.9 km) S. Retrieved 2018/05/27 00:00 UTC (1 day ago):

TAF YBBN 272316Z 2800/2906 15010KT 9999 -SHRA SCT030 FM280300 12010KT 9999 SCT035 FM280800 15007KT 9999 SCT030 FM281100 21006KT 9999 -SHRA SCT025 BKN050 FM282300 16008KT 9999 -SHRA SCT030 FM290200 13008KT 9999 SCT035 INTER 2800/2801 3000 SHRA BKN015 INTER 2814/2824 3000 SHRA BKN015